Terminal Aerodrome Forecast
Issued by NWS

Home | Current Version | Previous Version | Text Only | Print | Product List | Glossary On
Versions: 1 2 3 4 5 6 7 8 9 10 11 12 13 14 15 16 17
201
FTUS41 KBTV 241152 AAA
TAFSLK
TAF AMD
KSLK 241152Z 2412/2512 VRB04KT P6SM VCSH OVC030
      TEMPO 2412/2414 1/4SM +SN FZFG VV005
     FM241400 22010G20KT 2SM -SN BR OVC015
     FM241900 22010G20KT 3SM -RA BR OVC015
     FM250200 24007KT 3SM -RA BR OVC015
     FM250600 29006KT P6SM VCSH OVC020
     FM250900 36006KT P6SM VCSH OVC030=

USA.gov is the U.S. government's official web portal to all federal, state and local government web resources and services.